createdAt,value
2023-04-30T00:00:09.770Z,93.80
2023-04-30T00:02:40.236Z,93.90
2023-04-30T00:05:07.911Z,94.00
2023-04-30T00:07:35.157Z,93.90
2023-04-30T00:10:03.191Z,93.80
2023-04-30T00:12:30.788Z,93.90
2023-04-30T00:14:58.436Z,93.80
2023-04-30T00:17:25.698Z,93.90
2023-04-30T00:19:53.206Z,93.90
2023-04-30T00:22:20.589Z,93.80
2023-04-30T00:24:48.032Z,93.40
2023-04-30T00:27:15.476Z,93.10
2023-04-30T00:29:42.775Z,92.80
2023-04-30T00:32:10.212Z,92.70
2023-04-30T00:34:37.881Z,92.70
2023-04-30T00:37:05.308Z,92.70
2023-04-30T00:39:32.784Z,92.50
2023-04-30T00:42:00.373Z,92.30
2023-04-30T00:44:28.086Z,92.00
2023-04-30T00:46:55.332Z,92.00
2023-04-30T00:49:23.638Z,92.10
2023-04-30T00:51:52.327Z,92.20
2023-04-30T00:54:21.280Z,92.10
2023-04-30T00:56:49.290Z,92.40
2023-04-30T00:59:17.316Z,92.20
2023-04-30T01:01:44.675Z,92.20
2023-04-30T01:04:12.506Z,92.20
2023-04-30T01:06:40.239Z,92.20
2023-04-30T01:09:07.912Z,92.20
2023-04-30T01:11:59.626Z,92.30
2023-04-30T01:14:31.570Z,92.30
2023-04-30T01:17:12.599Z,92.30
2023-04-30T01:19:45.332Z,92.30
2023-04-30T01:22:25.552Z,92.40
2023-04-30T01:24:55.858Z,92.40
2023-04-30T01:27:57.474Z,92.50
2023-04-30T01:30:26.141Z,92.50
2023-04-30T01:32:53.607Z,92.50
2023-04-30T01:35:24.718Z,92.60
2023-04-30T01:38:37.323Z,92.70
2023-04-30T01:41:18.763Z,92.70
2023-04-30T01:44:11.158Z,92.60
2023-04-30T01:46:38.994Z,92.50
2023-04-30T01:49:43.934Z,92.50
2023-04-30T01:52:37.627Z,92.40
2023-04-30T01:55:23.419Z,92.40
2023-04-30T01:58:02.933Z,92.50
2023-04-30T02:00:33.374Z,92.30
2023-04-30T02:03:01.003Z,92.30
2023-04-30T02:05:28.841Z,92.20
2023-04-30T02:07:56.628Z,92.20
2023-04-30T02:10:26.661Z,92.20
2023-04-30T02:12:54.258Z,92.10
2023-04-30T02:15:21.583Z,92.10
2023-04-30T02:17:49.183Z,92.00
2023-04-30T02:20:16.990Z,92.10
2023-04-30T02:22:44.495Z,92.10
2023-04-30T02:25:12.885Z,92.10
2023-04-30T02:27:40.712Z,92.10
2023-04-30T02:30:08.425Z,92.10
2023-04-30T02:32:35.916Z,92.10
2023-04-30T02:35:03.467Z,92.10
2023-04-30T02:37:31.165Z,92.10
2023-04-30T02:39:58.717Z,92.10
2023-04-30T02:42:26.245Z,92.10
2023-04-30T02:44:53.516Z,91.90
2023-04-30T02:47:21.089Z,92.30
2023-04-30T02:49:48.437Z,92.00
2023-04-30T02:52:15.887Z,92.00
2023-04-30T02:54:43.554Z,92.10
2023-04-30T02:57:11.482Z,92.10
2023-04-30T02:59:39.760Z,92.10
2023-04-30T03:02:07.309Z,92.10
2023-04-30T03:04:34.759Z,92.10
2023-04-30T03:07:03.724Z,92.10
2023-04-30T03:09:32.249Z,92.20
2023-04-30T03:11:59.537Z,92.20
2023-04-30T03:14:27.018Z,92.20
2023-04-30T03:16:54.455Z,92.30
2023-04-30T03:19:25.565Z,92.40
2023-04-30T03:21:52.970Z,92.30
2023-04-30T03:24:20.707Z,92.30
2023-04-30T03:26:48.084Z,92.30
2023-04-30T03:29:15.648Z,92.30
2023-04-30T03:31:43.688Z,92.40
2023-04-30T03:34:11.416Z,92.30
2023-04-30T03:36:38.825Z,92.70
2023-04-30T03:39:06.389Z,92.30
2023-04-30T03:41:33.852Z,92.30
2023-04-30T03:44:01.274Z,92.20
2023-04-30T03:46:28.947Z,92.10
2023-04-30T03:48:56.365Z,92.20
2023-04-30T03:51:23.645Z,92.20
2023-04-30T03:53:51.345Z,92.20
2023-04-30T03:56:18.987Z,92.20
2023-04-30T03:58:46.445Z,92.20
2023-04-30T04:01:14.122Z,92.10
2023-04-30T04:03:41.606Z,92.00
2023-04-30T04:06:08.942Z,92.10
2023-04-30T04:08:36.826Z,91.80
2023-04-30T04:11:04.628Z,91.70
2023-04-30T04:13:32.253Z,91.70
2023-04-30T04:16:00.190Z,91.70
2023-04-30T04:18:27.673Z,91.70
2023-04-30T04:20:56.393Z,91.80
2023-04-30T04:23:23.746Z,91.80
2023-04-30T04:25:51.131Z,92.20
2023-04-30T04:28:18.497Z,91.70
2023-04-30T04:30:45.935Z,91.50
2023-04-30T04:33:13.343Z,91.60
2023-04-30T04:35:40.848Z,91.60
2023-04-30T04:38:08.235Z,91.60
2023-04-30T04:40:37.442Z,91.60
2023-04-30T04:43:04.941Z,91.50
2023-04-30T04:45:33.609Z,91.30
2023-04-30T04:48:01.348Z,91.20
2023-04-30T04:50:29.322Z,91.00
2023-04-30T04:52:56.772Z,90.90
2023-04-30T04:55:25.023Z,91.00
2023-04-30T04:57:52.940Z,90.80
2023-04-30T05:00:22.299Z,90.60
2023-04-30T05:02:50.325Z,90.50
2023-04-30T05:05:18.129Z,90.20
2023-04-30T05:07:46.356Z,90.20
2023-04-30T05:10:13.665Z,90.50
2023-04-30T05:12:41.696Z,90.00
2023-04-30T05:15:09.393Z,88.30
2023-04-30T05:17:36.744Z,88.20
2023-04-30T05:20:04.557Z,88.10
2023-04-30T05:22:31.945Z,88.10
2023-04-30T05:24:59.367Z,86.60
2023-04-30T05:27:27.999Z,87.00
2023-04-30T05:29:55.702Z,85.20
2023-04-30T05:32:23.817Z,84.70
2023-04-30T05:34:51.146Z,84.50
2023-04-30T05:37:20.200Z,83.50
2023-04-30T05:39:47.464Z,82.70
2023-04-30T05:42:15.254Z,82.10
2023-04-30T05:44:42.594Z,82.00
2023-04-30T05:47:09.864Z,81.00
2023-04-30T05:49:37.357Z,81.10
2023-04-30T05:52:05.230Z,81.00
2023-04-30T05:54:32.759Z,80.20
2023-04-30T05:57:00.280Z,79.90
2023-04-30T05:59:27.885Z,79.60
2023-04-30T06:01:55.182Z,80.30
2023-04-30T06:04:22.443Z,81.80
2023-04-30T06:06:49.840Z,80.90
2023-04-30T06:09:17.322Z,79.90
2023-04-30T06:11:50.231Z,77.60
2023-04-30T06:14:18.055Z,77.70
2023-04-30T06:16:46.003Z,76.80
2023-04-30T06:19:13.744Z,77.90
2023-04-30T06:21:43.571Z,77.50
2023-04-30T06:24:11.038Z,77.70
2023-04-30T06:26:39.032Z,76.50
2023-04-30T06:29:06.576Z,77.40
2023-04-30T06:31:33.892Z,76.80
2023-04-30T06:34:01.369Z,76.50
2023-04-30T06:36:28.621Z,76.30
2023-04-30T06:38:56.369Z,75.60
2023-04-30T06:41:23.846Z,76.40
2023-04-30T06:43:51.266Z,76.10
2023-04-30T06:46:18.600Z,76.00
2023-04-30T06:48:46.058Z,75.00
2023-04-30T06:51:13.508Z,75.00
2023-04-30T06:53:41.521Z,75.90
2023-04-30T06:56:08.828Z,75.70
2023-04-30T06:58:36.206Z,75.80
2023-04-30T07:01:03.499Z,76.20
2023-04-30T07:03:30.921Z,76.60
2023-04-30T07:05:58.620Z,77.50
2023-04-30T07:08:25.902Z,76.60
2023-04-30T07:10:53.390Z,76.50
2023-04-30T07:13:20.780Z,75.90
2023-04-30T07:15:48.098Z,74.80
2023-04-30T07:18:16.209Z,75.80
2023-04-30T07:20:43.494Z,75.70
2023-04-30T07:23:10.912Z,75.50
2023-04-30T07:25:38.271Z,76.20
2023-04-30T07:28:05.522Z,76.70
2023-04-30T07:30:32.799Z,75.00
2023-04-30T07:33:00.223Z,75.10
2023-04-30T07:35:27.522Z,76.60
2023-04-30T07:37:54.804Z,75.80
2023-04-30T07:40:35.012Z,74.80
2023-04-30T07:43:04.812Z,74.50
2023-04-30T07:45:34.091Z,75.00
2023-04-30T07:48:01.735Z,74.40
2023-04-30T07:50:33.721Z,74.40
2023-04-30T07:53:01.851Z,72.80
2023-04-30T07:55:29.197Z,72.80
2023-04-30T07:57:56.439Z,73.00
2023-04-30T08:00:24.031Z,72.40
2023-04-30T08:02:51.381Z,71.00
2023-04-30T08:05:19.087Z,70.60
2023-04-30T08:07:46.330Z,70.70
2023-04-30T08:10:13.685Z,71.20
2023-04-30T08:12:40.948Z,71.60
2023-04-30T08:15:08.372Z,71.30
2023-04-30T08:17:36.091Z,70.60
2023-04-30T08:20:04.962Z,70.70
2023-04-30T08:22:32.528Z,69.70
2023-04-30T08:25:01.918Z,69.80
2023-04-30T08:27:31.630Z,70.20
2023-04-30T08:29:59.056Z,69.50
2023-04-30T08:32:26.465Z,69.80
2023-04-30T08:34:54.728Z,69.00
2023-04-30T08:37:22.364Z,67.80
2023-04-30T08:39:49.719Z,67.90
2023-04-30T08:42:19.152Z,66.80
2023-04-30T08:44:47.145Z,63.50
2023-04-30T08:47:16.715Z,64.20
2023-04-30T08:49:46.226Z,63.90
2023-04-30T08:52:13.976Z,63.70
2023-04-30T08:54:44.222Z,63.40
2023-04-30T08:57:11.636Z,62.70
2023-04-30T08:59:39.056Z,62.90
2023-04-30T09:02:06.506Z,62.40
2023-04-30T09:04:33.804Z,63.50
2023-04-30T09:07:05.228Z,63.20
2023-04-30T09:09:39.209Z,63.60
2023-04-30T09:12:19.078Z,62.90
2023-04-30T09:15:00.656Z,64.10
2023-04-30T09:17:28.463Z,64.60
2023-04-30T09:20:07.044Z,63.30
2023-04-30T09:22:36.044Z,64.30
2023-04-30T09:25:03.515Z,65.10
2023-04-30T09:27:30.877Z,62.60
2023-04-30T09:29:58.243Z,61.90
2023-04-30T09:32:26.101Z,60.70
2023-04-30T09:34:55.202Z,61.60
2023-04-30T09:37:22.910Z,61.80
2023-04-30T09:39:59.156Z,60.90
2023-04-30T09:42:26.488Z,60.90
2023-04-30T09:44:54.110Z,61.40
2023-04-30T09:47:21.498Z,61.10
2023-04-30T09:49:53.897Z,61.90
2023-04-30T09:52:21.776Z,61.80
2023-04-30T09:54:49.563Z,61.30
2023-04-30T09:57:19.810Z,61.80
2023-04-30T09:59:47.468Z,62.70
2023-04-30T10:02:17.522Z,62.50
2023-04-30T10:04:49.393Z,61.50
2023-04-30T10:07:22.183Z,60.00
2023-04-30T10:09:54.296Z,58.90
2023-04-30T10:12:27.839Z,60.10
2023-04-30T10:15:06.721Z,60.10
2023-04-30T10:17:40.940Z,59.00
2023-04-30T10:20:12.319Z,60.90
2023-04-30T10:22:42.587Z,60.10
2023-04-30T10:25:13.834Z,59.90
2023-04-30T10:27:41.631Z,61.30
2023-04-30T10:30:10.997Z,60.80
2023-04-30T10:33:05.941Z,59.70
2023-04-30T10:36:02.637Z,63.20
2023-04-30T10:38:32.101Z,61.00
2023-04-30T10:41:03.843Z,60.10
2023-04-30T10:43:31.774Z,60.10
2023-04-30T10:45:59.537Z,61.80
2023-04-30T10:48:27.534Z,62.10
2023-04-30T10:50:59.298Z,60.20
2023-04-30T10:53:30.270Z,60.50
2023-04-30T10:56:08.809Z,61.00
2023-04-30T10:58:38.846Z,60.40
2023-04-30T11:01:16.125Z,59.50
2023-04-30T11:04:05.846Z,59.40
2023-04-30T11:06:55.084Z,59.50
2023-04-30T11:09:41.293Z,58.40
2023-04-30T11:12:19.544Z,58.20
2023-04-30T11:14:47.152Z,58.80
2023-04-30T11:17:23.252Z,59.20
2023-04-30T11:19:52.566Z,59.00
2023-04-30T11:22:24.716Z,58.60
2023-04-30T11:25:04.747Z,57.10
2023-04-30T11:27:36.723Z,57.20
2023-04-30T11:30:10.153Z,57.00
2023-04-30T11:32:39.440Z,56.80
2023-04-30T11:35:08.152Z,57.00
2023-04-30T11:37:46.024Z,56.50
2023-04-30T11:40:15.163Z,55.40
2023-04-30T11:42:46.087Z,55.30
2023-04-30T11:45:20.919Z,57.00
2023-04-30T11:47:50.564Z,57.90
2023-04-30T11:50:28.940Z,57.50
2023-04-30T11:52:58.922Z,58.60
2023-04-30T11:55:27.800Z,60.00
2023-04-30T11:57:57.247Z,60.20
2023-04-30T12:00:30.040Z,61.00
2023-04-30T12:03:01.011Z,60.50
2023-04-30T12:05:28.926Z,60.20
2023-04-30T12:08:06.560Z,60.80
2023-04-30T12:10:34.046Z,61.70
2023-04-30T12:13:02.006Z,63.80
2023-04-30T12:15:29.959Z,64.30
2023-04-30T12:17:59.100Z,64.00
2023-04-30T12:20:28.851Z,64.20
2023-04-30T12:22:57.794Z,62.70
2023-04-30T12:25:25.547Z,63.20
2023-04-30T12:27:53.480Z,63.50
2023-04-30T12:30:22.976Z,62.50
2023-04-30T12:32:52.264Z,62.60
2023-04-30T12:35:22.240Z,61.60
2023-04-30T12:37:52.262Z,63.20
2023-04-30T12:40:21.603Z,62.90
2023-04-30T12:42:49.037Z,62.50
2023-04-30T12:45:55.290Z,62.50
2023-04-30T12:48:24.714Z,63.20
2023-04-30T12:51:01.004Z,63.50
2023-04-30T12:53:29.130Z,62.00
2023-04-30T12:56:12.887Z,59.50
2023-04-30T12:58:40.678Z,58.40
2023-04-30T13:01:13.260Z,58.50
2023-04-30T13:03:41.208Z,59.70
2023-04-30T13:06:10.373Z,59.10
2023-04-30T13:08:49.858Z,59.30
2023-04-30T13:11:27.162Z,59.40
2023-04-30T13:13:58.459Z,60.00
2023-04-30T13:16:26.440Z,59.00
2023-04-30T13:18:54.835Z,59.90
2023-04-30T13:21:22.998Z,60.30
2023-04-30T13:23:53.553Z,60.60
2023-04-30T13:26:23.330Z,60.40
2023-04-30T13:28:51.174Z,60.40
2023-04-30T13:31:18.721Z,61.10
2023-04-30T13:33:46.557Z,61.60
2023-04-30T13:36:13.991Z,60.00
2023-04-30T13:38:41.760Z,60.00
2023-04-30T13:41:09.293Z,61.00
2023-04-30T13:43:41.447Z,62.10
2023-04-30T13:46:09.713Z,63.50
2023-04-30T13:48:37.194Z,61.50
2023-04-30T13:51:04.677Z,58.90
2023-04-30T13:53:32.457Z,57.50
2023-04-30T13:56:00.000Z,54.60
2023-04-30T13:58:27.769Z,54.10
2023-04-30T14:00:55.349Z,55.20
2023-04-30T14:03:23.009Z,55.90
2023-04-30T14:05:50.896Z,56.70
2023-04-30T14:08:18.350Z,57.90
2023-04-30T14:10:45.744Z,58.90
2023-04-30T14:13:13.531Z,59.70
2023-04-30T14:15:40.855Z,59.60
2023-04-30T14:18:08.272Z,60.60
2023-04-30T14:20:35.878Z,59.80
2023-04-30T14:23:04.214Z,61.30
2023-04-30T14:25:31.655Z,60.60
2023-04-30T14:27:59.335Z,59.30
2023-04-30T14:30:26.746Z,57.10
2023-04-30T14:32:54.570Z,57.00
2023-04-30T14:35:21.847Z,56.20
2023-04-30T14:37:49.121Z,55.70
2023-04-30T14:40:16.761Z,55.90
2023-04-30T14:42:44.266Z,56.90
2023-04-30T14:45:11.675Z,57.10
2023-04-30T14:47:40.839Z,57.60
2023-04-30T14:50:09.487Z,57.70
2023-04-30T14:52:37.096Z,58.90
2023-04-30T14:55:04.870Z,59.00
2023-04-30T14:57:33.733Z,59.10
2023-04-30T15:00:01.729Z,59.20
2023-04-30T15:02:29.327Z,59.40
2023-04-30T15:04:56.694Z,59.10
2023-04-30T15:07:24.133Z,59.30
2023-04-30T15:09:52.592Z,58.60
2023-04-30T15:12:20.456Z,59.00
2023-04-30T15:14:48.045Z,57.70
2023-04-30T15:17:15.397Z,57.30
2023-04-30T15:19:43.637Z,58.20
2023-04-30T15:22:11.218Z,57.30
2023-04-30T15:24:38.887Z,57.50
2023-04-30T15:27:06.135Z,56.50
2023-04-30T15:29:33.802Z,56.70
2023-04-30T15:32:01.103Z,57.50
2023-04-30T15:34:28.551Z,56.90
2023-04-30T15:36:58.863Z,56.90
2023-04-30T15:39:26.773Z,57.70
2023-04-30T15:41:54.414Z,57.20
2023-04-30T15:44:21.666Z,56.80
2023-04-30T15:46:49.109Z,57.20
2023-04-30T15:49:16.496Z,57.10
2023-04-30T15:51:45.604Z,55.50
2023-04-30T15:54:13.886Z,55.00
2023-04-30T15:56:41.196Z,54.70
2023-04-30T16:02:11.284Z,54.30
2023-04-30T16:04:38.785Z,54.20
2023-04-30T16:07:06.470Z,55.10
2023-04-30T16:13:22.329Z,54.60
2023-04-30T16:15:50.114Z,54.50
2023-04-30T16:18:17.759Z,54.90
2023-04-30T16:20:48.855Z,55.00
2023-04-30T16:23:17.330Z,55.80
2023-04-30T16:25:46.143Z,55.60
2023-04-30T16:28:14.181Z,55.20
2023-04-30T16:30:42.283Z,55.30
2023-04-30T16:33:10.658Z,55.50
2023-04-30T16:35:38.192Z,55.40
2023-04-30T16:38:06.961Z,55.00
2023-04-30T16:40:34.817Z,55.00
2023-04-30T16:43:02.173Z,55.00
2023-04-30T16:45:30.843Z,55.20
2023-04-30T16:47:58.327Z,56.30
2023-04-30T16:50:28.834Z,57.30
2023-04-30T16:53:01.808Z,57.40
2023-04-30T16:55:30.153Z,57.80
2023-04-30T16:57:59.928Z,57.10
2023-04-30T17:00:27.942Z,57.60
2023-04-30T17:02:55.501Z,57.60
2023-04-30T17:05:23.878Z,57.50
2023-04-30T17:07:51.184Z,57.40
2023-04-30T17:10:19.751Z,57.30
2023-04-30T17:12:47.454Z,58.20
2023-04-30T17:15:15.084Z,59.50
2023-04-30T17:17:42.607Z,59.50
2023-04-30T17:20:10.480Z,59.60
2023-04-30T17:22:38.838Z,59.80
2023-04-30T17:25:08.245Z,59.80
2023-04-30T17:27:35.997Z,60.00
2023-04-30T17:30:04.991Z,60.20
2023-04-30T17:32:32.327Z,60.70
2023-04-30T17:35:01.575Z,60.60
2023-04-30T17:37:29.087Z,60.80
2023-04-30T17:39:57.723Z,61.10
2023-04-30T17:42:25.402Z,61.20
2023-04-30T17:44:52.900Z,61.30
2023-04-30T17:47:20.261Z,61.80
2023-04-30T17:49:47.711Z,62.00
2023-04-30T17:52:15.183Z,62.60
2023-04-30T17:54:44.334Z,62.90
2023-04-30T17:57:11.673Z,63.00
2023-04-30T17:59:40.603Z,63.40
2023-04-30T18:02:08.784Z,64.40
2023-04-30T18:04:38.167Z,64.00
2023-04-30T18:07:05.631Z,64.50
2023-04-30T18:09:33.390Z,64.60
2023-04-30T18:12:00.811Z,65.00
2023-04-30T18:14:29.661Z,65.00
2023-04-30T18:16:58.290Z,64.90
2023-04-30T18:19:25.759Z,65.50
2023-04-30T18:21:53.114Z,66.20
2023-04-30T18:24:20.920Z,66.20
2023-04-30T18:26:48.552Z,66.20
2023-04-30T18:29:17.826Z,66.40
2023-04-30T18:31:45.383Z,67.00
2023-04-30T18:34:13.091Z,67.30
2023-04-30T18:36:43.069Z,67.50
2023-04-30T18:39:13.321Z,67.90
2023-04-30T18:41:42.989Z,68.20
2023-04-30T18:44:11.897Z,68.60
2023-04-30T18:46:39.582Z,68.90
2023-04-30T18:49:06.971Z,69.10
2023-04-30T18:51:34.350Z,69.40
2023-04-30T18:54:01.788Z,69.80
2023-04-30T18:56:29.194Z,70.30
2023-04-30T18:58:56.833Z,70.60
2023-04-30T19:01:31.033Z,71.10
2023-04-30T19:03:58.880Z,71.40
2023-04-30T19:06:28.436Z,71.80
2023-04-30T19:08:55.949Z,72.10
2023-04-30T19:11:25.908Z,73.10
2023-04-30T19:13:53.293Z,72.70
2023-04-30T19:16:21.399Z,72.80
2023-04-30T19:18:48.941Z,73.10
2023-04-30T19:21:16.497Z,73.50
2023-04-30T19:23:44.111Z,74.00
2023-04-30T19:26:17.249Z,74.50
2023-04-30T19:28:46.189Z,74.80
2023-04-30T19:31:15.919Z,75.00
2023-04-30T19:33:44.621Z,75.90
2023-04-30T19:36:12.295Z,75.50
2023-04-30T19:38:39.732Z,75.50
2023-04-30T19:41:08.997Z,75.60
2023-04-30T19:43:37.637Z,75.70
2023-04-30T19:46:07.369Z,76.10
2023-04-30T19:48:35.046Z,76.30
2023-04-30T19:51:05.479Z,76.50
2023-04-30T19:53:34.373Z,76.70
2023-04-30T19:56:01.778Z,76.80
2023-04-30T19:58:30.611Z,77.00
2023-04-30T20:00:58.013Z,77.00
2023-04-30T20:03:25.610Z,77.30
2023-04-30T20:05:54.128Z,77.50
2023-04-30T20:08:23.270Z,78.10
2023-04-30T20:10:50.743Z,78.30
2023-04-30T20:13:18.179Z,78.50
2023-04-30T20:15:45.781Z,78.60
2023-04-30T20:18:13.465Z,79.20
2023-04-30T20:20:41.577Z,78.50
2023-04-30T20:23:16.706Z,78.60
2023-04-30T20:25:45.680Z,78.90
2023-04-30T20:28:14.048Z,79.10
2023-04-30T20:30:42.754Z,79.40
2023-04-30T20:33:14.428Z,79.40
2023-04-30T20:35:47.350Z,79.60
2023-04-30T20:38:18.919Z,79.40
2023-04-30T20:40:47.359Z,79.60
2023-04-30T20:43:14.786Z,79.90
2023-04-30T20:45:44.586Z,80.40
2023-04-30T20:48:12.024Z,80.80
2023-04-30T20:50:40.263Z,80.90
2023-04-30T20:53:19.963Z,81.10
2023-04-30T20:55:47.321Z,81.50
2023-04-30T20:58:14.975Z,81.70
2023-04-30T21:00:42.532Z,81.70
2023-04-30T21:03:10.319Z,81.80
2023-04-30T21:05:37.808Z,82.10
2023-04-30T21:08:05.525Z,82.40
2023-04-30T21:10:35.729Z,82.70
2023-04-30T21:13:06.104Z,82.90
2023-04-30T21:15:35.808Z,83.10
2023-04-30T21:18:03.379Z,83.10
2023-04-30T21:20:31.493Z,83.10
2023-04-30T21:22:59.539Z,83.10
2023-04-30T21:25:27.303Z,83.10
2023-04-30T21:27:55.333Z,83.00
2023-04-30T21:30:25.636Z,83.10
2023-04-30T21:32:58.713Z,83.10
2023-04-30T21:35:27.840Z,82.90
2023-04-30T21:37:55.833Z,82.90
2023-04-30T21:40:23.207Z,83.00
2023-04-30T21:42:51.367Z,83.10
2023-04-30T21:45:19.886Z,83.30
2023-04-30T21:47:48.970Z,83.50
2023-04-30T21:50:17.010Z,83.70
2023-04-30T21:52:44.529Z,83.80
2023-04-30T21:55:12.378Z,83.90
2023-04-30T21:57:39.810Z,83.90
2023-04-30T22:00:07.844Z,83.90
2023-04-30T22:02:36.980Z,83.90
2023-04-30T22:05:06.440Z,83.80
2023-04-30T22:07:33.865Z,83.70
2023-04-30T22:10:05.459Z,83.70
2023-04-30T22:12:35.122Z,83.80
2023-04-30T22:15:04.052Z,83.70
2023-04-30T22:17:32.664Z,83.80
2023-04-30T22:20:00.078Z,83.90
2023-04-30T22:22:27.484Z,83.70
2023-04-30T22:24:55.099Z,83.90
2023-04-30T22:27:23.116Z,84.10
2023-04-30T22:29:50.726Z,84.00
2023-04-30T22:32:19.451Z,84.20
2023-04-30T22:34:47.023Z,84.40
2023-04-30T22:37:14.345Z,84.40
2023-04-30T22:39:42.711Z,84.40
2023-04-30T22:42:10.456Z,84.40
2023-04-30T22:44:38.988Z,84.10
2023-04-30T22:47:06.964Z,84.00
2023-04-30T22:49:35.821Z,83.90
2023-04-30T22:52:04.977Z,83.20
2023-04-30T22:54:32.568Z,82.60
2023-04-30T22:56:59.999Z,82.40
2023-04-30T22:59:28.862Z,82.40
2023-04-30T23:01:57.304Z,82.50
2023-04-30T23:04:24.765Z,82.30
2023-04-30T23:06:53.027Z,82.00
2023-04-30T23:09:21.741Z,81.70
2023-04-30T23:11:51.139Z,81.60
2023-04-30T23:14:19.253Z,81.50
2023-04-30T23:16:48.088Z,81.30
2023-04-30T23:19:15.544Z,81.30
2023-04-30T23:21:43.599Z,81.30
2023-04-30T23:24:11.250Z,81.20
2023-04-30T23:26:38.812Z,81.10
2023-04-30T23:29:06.119Z,81.20
2023-04-30T23:31:33.406Z,81.10
2023-04-30T23:34:01.547Z,81.20
2023-04-30T23:36:28.846Z,81.50
2023-04-30T23:38:56.595Z,81.60
2023-04-30T23:41:24.542Z,81.50
2023-04-30T23:43:51.932Z,81.50
2023-04-30T23:46:20.577Z,81.50
2023-04-30T23:48:49.412Z,82.20
2023-04-30T23:51:18.492Z,81.40
2023-04-30T23:53:45.856Z,81.60
2023-04-30T23:56:13.158Z,81.50
2023-04-30T23:58:40.421Z,81.50
